Time;durP1;ratioP1;P1;durP2;ratioP2;P2;SDS_P1;SDS_P2;PMS_P1;PMS_P2;Temp;Humidity;BMP_temperature;BMP_pressure;BME280_temperature;BME280_humidity;BME280_pressure;Samples;Min_cycle;Max_cycle;Signal;HPM_P1;HPM_P2
2023/10/18 00:02:18;;;;;;;0.30;0.20;;;9.00;99.90;;;;;;5065935;28;20917;-80
2023/10/18 00:04:44;;;;;;;0.30;0.20;;;8.90;99.90;;;;;;5064890;28;20694;-80
2023/10/18 00:07:13;;;;;;;0.30;0.20;;;8.90;99.90;;;;;;5064447;28;20200;-78
2023/10/18 00:09:45;;;;;;;0.30;0.20;;;8.90;99.90;;;;;;5066091;28;20330;-77
2023/10/18 00:12:16;;;;;;;0.30;0.20;;;8.80;99.90;;;;;;5065895;28;20694;-78
2023/10/18 00:14:43;;;;;;;1.20;1.13;;;8.80;99.90;;;;;;5066086;28;20197;-80
2023/10/18 00:17:09;;;;;;;0.30;0.20;;;8.70;99.90;;;;;;5065977;28;20210;-77
2023/10/18 00:19:35;;;;;;;0.30;0.20;;;8.70;99.90;;;;;;5064515;28;20188;-77
2023/10/18 00:22:00;;;;;;;0.30;0.20;;;8.70;99.90;;;;;;5064355;28;20692;-77
2023/10/18 00:24:26;;;;;;;0.30;0.20;;;8.60;99.90;;;;;;5066218;28;20204;-77
2023/10/18 00:26:53;;;;;;;0.30;0.20;;;8.60;99.90;;;;;;5065647;28;20227;-77
2023/10/18 00:29:19;;;;;;;0.30;0.20;;;8.50;99.90;;;;;;5065646;28;20172;-77
2023/10/18 00:31:45;;;;;;;0.30;0.20;;;8.50;99.90;;;;;;5066120;28;20177;-79
2023/10/18 00:34:12;;;;;;;0.30;0.20;;;8.50;99.90;;;;;;5064382;28;20239;-79
2023/10/18 00:36:37;;;;;;;0.30;0.20;;;8.50;99.90;;;;;;5064482;28;20433;-79
2023/10/18 00:39:22;;;;;;;0.30;0.20;;;8.50;99.90;;;;;;5065458;28;20216;-77
2023/10/18 00:41:53;;;;;;;0.30;0.20;;;8.50;99.90;;;;;;5064314;28;20722;-77
2023/10/18 00:44:21;;;;;;;5.97;3.90;;;8.50;99.90;;;;;;5064807;28;20189;-77
2023/10/18 00:46:53;;;;;;;0.30;0.20;;;8.40;99.90;;;;;;5064076;28;20304;-79
2023/10/18 00:49:20;;;;;;;0.30;0.20;;;8.30;99.90;;;;;;5065231;28;20173;-77
2023/10/18 00:51:47;;;;;;;0.30;0.20;;;8.30;99.90;;;;;;5063176;28;20177;-79
2023/10/18 00:54:14;;;;;;;0.30;0.20;;;8.30;99.90;;;;;;5066020;28;20277;-77
2023/10/18 00:56:50;;;;;;;0.30;0.20;;;8.30;99.90;;;;;;5067214;28;20605;-79
2023/10/18 00:59:21;;;;;;;0.30;0.20;;;8.20;99.90;;;;;;5069580;28;20177;-79
2023/10/18 01:01:53;;;;;;;0.30;0.20;;;8.20;99.90;;;;;;5069216;28;20180;-77
2023/10/18 01:04:23;;;;;;;0.30;0.20;;;8.10;99.90;;;;;;5068482;28;20641;-77
2023/10/18 01:06:50;;;;;;;0.30;0.20;;;8.10;99.90;;;;;;5067983;28;20177;-79
2023/10/18 01:09:17;;;;;;;0.30;0.20;;;8.00;99.90;;;;;;5067723;28;20576;-77
2023/10/18 01:11:46;;;;;;;0.30;0.20;;;8.00;99.90;;;;;;5069041;28;20732;-79
2023/10/18 01:14:17;;;;;;;0.30;0.20;;;8.00;99.90;;;;;;5068261;28;20242;-78
2023/10/18 01:16:44;;;;;;;0.30;0.20;;;8.00;99.90;;;;;;5069550;28;20173;-77
2023/10/18 01:19:14;;;;;;;0.30;0.20;;;7.90;99.90;;;;;;5067775;28;20378;-79
2023/10/18 01:21:47;;;;;;;0.30;0.20;;;7.90;99.90;;;;;;5067901;28;20213;-79
2023/10/18 01:24:16;;;;;;;0.30;0.20;;;7.90;99.90;;;;;;5069208;28;20515;-77
2023/10/18 01:26:43;;;;;;;0.30;0.20;;;7.90;99.90;;;;;;5068785;28;20193;-77
2023/10/18 01:29:09;;;;;;;0.30;0.20;;;7.80;99.90;;;;;;5067523;28;20293;-77
2023/10/18 01:31:36;;;;;;;0.30;0.20;;;7.80;99.90;;;;;;5067654;28;20269;-79
2023/10/18 01:34:05;;;;;;;0.30;0.20;;;7.80;99.90;;;;;;5069229;28;20409;-77
2023/10/18 01:36:32;;;;;;;0.30;0.20;;;7.80;99.90;;;;;;5067216;28;20694;-79
2023/10/18 01:38:58;;;;;;;0.30;0.20;;;7.80;99.90;;;;;;5068578;28;20461;-79
2023/10/18 01:41:33;;;;;;;0.30;0.20;;;7.80;99.90;;;;;;5068046;28;20839;-80
2023/10/18 01:44:07;;;;;;;0.30;0.20;;;7.90;99.90;;;;;;5069217;28;20164;-79
2023/10/18 01:46:33;;;;;;;0.30;0.20;;;7.90;99.90;;;;;;5068764;28;20811;-77
2023/10/18 01:49:00;;;;;;;0.30;0.20;;;7.90;99.90;;;;;;5067258;28;20646;-78
2023/10/18 01:51:27;;;;;;;0.30;0.20;;;7.80;99.90;;;;;;5067273;28;20265;-80
2023/10/18 01:53:55;;;;;;;0.30;0.20;;;7.80;99.90;;;;;;5068519;28;20691;-77
2023/10/18 01:56:21;;;;;;;0.30;0.20;;;7.80;99.90;;;;;;5066599;28;20212;-77
2023/10/18 01:58:50;;;;;;;0.30;0.20;;;7.80;99.90;;;;;;5068590;28;20217;-79
2023/10/18 02:01:16;;;;;;;0.30;0.20;;;7.80;99.90;;;;;;5068069;28;20193;-77
2023/10/18 02:03:44;;;;;;;0.30;0.20;;;7.80;99.90;;;;;;5068446;28;20184;-76
2023/10/18 02:06:10;;;;;;;0.30;0.20;;;7.80;99.90;;;;;;5066514;28;20734;-80
2023/10/18 02:08:36;;;;;;;0.30;0.20;;;7.80;99.90;;;;;;5065868;28;20181;-79
2023/10/18 02:11:07;;;;;;;9.60;9.10;;;7.80;99.90;;;;;;5067855;28;20567;-80
2023/10/18 02:13:33;;;;;;;0.30;0.20;;;7.80;99.90;;;;;;5068044;28;20158;-76
2023/10/18 02:15:59;;;;;;;0.30;0.20;;;7.70;99.90;;;;;;5066473;28;20238;-77
2023/10/18 02:18:26;;;;;;;0.30;0.20;;;7.80;99.90;;;;;;5067809;28;20490;-80
2023/10/18 02:20:52;;;;;;;0.30;0.20;;;7.70;99.90;;;;;;5066566;28;20656;-77
2023/10/18 02:23:21;;;;;;;0.30;0.20;;;7.80;99.90;;;;;;5066425;28;20264;-80
2023/10/18 02:25:48;;;;;;;0.30;0.20;;;7.80;99.90;;;;;;5066587;28;20239;-77
2023/10/18 02:28:25;;;;;;;0.30;0.20;;;7.80;99.90;;;;;;5067808;28;20701;-80
2023/10/18 02:31:10;;;;;;;0.30;0.20;;;7.80;99.90;;;;;;5067962;28;20204;-80
2023/10/18 02:33:39;;;;;;;0.30;0.20;;;7.80;99.90;;;;;;5066791;28;20177;-79
2023/10/18 02:36:12;;;;;;;0.30;0.20;;;7.70;99.90;;;;;;5066319;28;20212;-78
2023/10/18 02:38:38;;;;;;;0.30;0.20;;;7.70;99.90;;;;;;5067610;28;20201;-79
2023/10/18 02:43:49;;;;;;;0.30;0.20;;;7.60;99.90;;;;;;5067940;28;20164;-79
2023/10/18 02:46:20;;;;;;;0.30;0.20;;;7.60;99.90;;;;;;5067585;28;20193;-77
2023/10/18 02:48:47;;;;;;;0.30;0.20;;;7.50;99.90;;;;;;5067805;28;20535;-79
2023/10/18 02:51:14;;;;;;;0.30;0.20;;;7.50;99.90;;;;;;5067103;28;20289;-80
2023/10/18 02:53:41;;;;;;;0.30;0.20;;;7.50;99.90;;;;;;5067697;28;20189;-77
2023/10/18 02:56:08;;;;;;;0.30;0.20;;;7.40;99.90;;;;;;5066613;28;20596;-76
2023/10/18 02:58:37;;;;;;;0.30;0.20;;;7.40;99.90;;;;;;5067122;28;20233;-77
2023/10/18 03:01:07;;;;;;;0.30;0.20;;;7.30;99.90;;;;;;5065736;28;20209;-78
2023/10/18 03:03:33;;;;;;;0.30;0.20;;;7.20;99.90;;;;;;5065636;28;20169;-77
2023/10/18 03:06:06;;;;;;;0.30;0.20;;;7.20;99.90;;;;;;5067175;28;20204;-76
2023/10/18 03:08:35;;;;;;;0.30;0.20;;;7.20;99.90;;;;;;5067026;28;20398;-77
2023/10/18 03:11:03;;;;;;;0.30;0.20;;;7.20;99.90;;;;;;5065500;28;20633;-79
2023/10/18 03:13:30;;;;;;;7.50;2.58;;;7.40;99.90;;;;;;5066924;28;20630;-77
2023/10/18 03:16:57;;;;;;;0.30;0.20;;;7.60;99.90;;;;;;5066718;28;20584;-78
2023/10/18 03:18:52;;;;;;;0.30;0.20;;;7.70;99.90;;;;;;5057463;28;20828;-79
2023/10/18 03:21:20;;;;;;;0.30;0.20;;;7.80;99.90;;;;;;5064776;28;20251;-79
2023/10/18 03:23:57;;;;;;;0.30;0.20;;;7.90;99.90;;;;;;5065497;28;20170;-79
2023/10/18 03:26:33;;;;;;;0.30;0.20;;;8.00;99.90;;;;;;5066820;28;20220;-79
2023/10/18 03:29:05;;;;;;;0.30;0.20;;;8.10;99.90;;;;;;5066636;28;20159;-79
2023/10/18 03:31:35;;;;;;;0.30;0.20;;;8.20;99.90;;;;;;5066312;28;20234;-77
2023/10/18 03:34:08;;;;;;;0.30;0.20;;;8.20;99.90;;;;;;5066723;28;20169;-77
2023/10/18 03:36:35;;;;;;;0.30;0.20;;;8.30;99.90;;;;;;5064341;28;20185;-79
2023/10/18 03:39:15;;;;;;;0.30;0.20;;;8.40;99.90;;;;;;5065034;28;20215;-77
2023/10/18 03:41:41;;;;;;;0.30;0.20;;;8.40;99.90;;;;;;5066426;28;20431;-80
2023/10/18 03:44:08;;;;;;;0.30;0.20;;;8.50;99.90;;;;;;5066801;28;20204;-80
2023/10/18 03:46:47;;;;;;;0.30;0.20;;;8.50;99.90;;;;;;5064826;28;20185;-81
2023/10/18 03:49:27;;;;;;;0.30;0.20;;;8.50;99.90;;;;;;5066205;28;20244;-81
2023/10/18 03:51:57;;;;;;;0.30;0.20;;;8.50;99.90;;;;;;5065854;28;20177;-81
2023/10/18 03:54:23;;;;;;;0.30;0.20;;;8.50;99.90;;;;;;5065457;28;20262;-78
2023/10/18 03:56:53;;;;;;;0.30;0.20;;;8.60;99.90;;;;;;5065443;28;20207;-79
2023/10/18 03:59:22;;;;;;;0.30;0.20;;;8.60;99.90;;;;;;5055564;28;20464;-81
2023/10/18 04:02:04;;;;;;;0.30;0.20;;;8.60;99.90;;;;;;5043121;28;20276;-79
2023/10/18 04:04:37;;;;;;;0.30;0.20;;;8.60;99.90;;;;;;5044419;28;20200;-78
2023/10/18 04:07:13;;;;;;;0.30;0.30;;;8.60;99.90;;;;;;5044022;28;20599;-78
2023/10/18 04:09:53;;;;;;;0.30;0.20;;;8.60;99.90;;;;;;5076601;28;20197;-78
2023/10/18 04:12:25;;;;;;;0.30;0.20;;;8.60;99.90;;;;;;5043021;28;20436;-81
2023/10/18 04:15:00;;;;;;;0.30;0.20;;;8.60;99.90;;;;;;5044433;28;20248;-78
2023/10/18 04:17:36;;;;;;;0.30;0.20;;;8.70;99.90;;;;;;5043929;28;20204;-81
2023/10/18 04:20:22;;;;;;;0.30;0.20;;;8.70;99.90;;;;;;5072489;28;20209;-81
2023/10/18 04:22:51;;;;;;;0.30;0.20;;;8.70;99.90;;;;;;5043270;28;20378;-78
2023/10/18 04:25:27;;;;;;;0.30;0.20;;;8.70;99.90;;;;;;5042125;28;20539;-78
2023/10/18 04:27:53;;;;;;;0.30;0.20;;;8.60;99.90;;;;;;5038181;28;20186;-81
2023/10/18 04:30:22;;;;;;;0.30;0.20;;;8.60;99.90;;;;;;5041539;28;20205;-81
2023/10/18 04:32:59;;;;;;;0.30;0.20;;;8.60;99.90;;;;;;5044715;28;20635;-80
2023/10/18 04:35:30;;;;;;;0.30;0.20;;;8.50;99.90;;;;;;5043663;28;20220;-80
2023/10/18 04:37:56;;;;;;;0.30;0.20;;;8.40;99.90;;;;;;5045524;28;20678;-77
2023/10/18 04:40:23;;;;;;;0.30;0.20;;;8.20;99.90;;;;;;5043156;28;20578;-80
2023/10/18 04:42:55;;;;;;;0.30;0.20;;;8.00;99.90;;;;;;5045478;28;20169;-80
2023/10/18 04:45:24;;;;;;;0.30;0.20;;;7.80;99.90;;;;;;5042918;28;20232;-77
2023/10/18 04:47:57;;;;;;;0.30;0.20;;;7.60;99.90;;;;;;5065825;28;20186;-80
2023/10/18 04:50:32;;;;;;;0.30;0.20;;;7.50;99.90;;;;;;5066348;28;20221;-77
2023/10/18 04:52:59;;;;;;;0.30;0.20;;;7.40;99.90;;;;;;5034539;28;20276;-79
2023/10/18 04:55:27;;;;;;;0.30;0.20;;;7.30;99.90;;;;;;5037385;28;20251;-76
2023/10/18 04:57:53;;;;;;;0.30;0.20;;;7.20;99.90;;;;;;5036025;28;20210;-76
2023/10/18 05:00:35;;;;;;;0.30;0.20;;;7.10;99.90;;;;;;5023957;28;20471;-78
2023/10/18 05:03:06;;;;;;;0.30;0.20;;;6.90;99.90;;;;;;5031196;28;20398;-77
2023/10/18 05:05:37;;;;;;;0.30;0.20;;;6.80;99.90;;;;;;5049764;28;20225;-80
2023/10/18 05:08:04;;;;;;;0.30;0.20;;;6.60;99.90;;;;;;5037907;28;20567;-80
2023/10/18 05:10:30;;;;;;;0.30;0.20;;;6.50;99.90;;;;;;5035603;28;20692;-77
2023/10/18 05:13:05;;;;;;;0.30;0.20;;;6.50;99.90;;;;;;5027586;28;20204;-78
2023/10/18 05:15:33;;;;;;;0.30;0.20;;;6.40;99.90;;;;;;5044688;28;20285;-77
2023/10/18 05:18:16;;;;;;;0.30;0.20;;;6.30;99.90;;;;;;5042323;28;20683;-80
2023/10/18 05:21:08;;;;;;;0.30;0.20;;;6.30;99.90;;;;;;5043034;28;20206;-80
2023/10/18 05:23:32;;;;;;;0.30;0.20;;;6.30;99.90;;;;;;5042867;28;20189;-77
2023/10/18 05:36:35;;;;;;;0.30;0.20;;;6.20;99.90;;;;;;5052099;28;20626;-79
2023/10/18 05:39:27;;;;;;;0.30;0.20;;;6.20;99.90;;;;;;5041938;28;20259;-80
2023/10/18 05:41:51;;;;;;;0.30;0.20;;;6.20;99.90;;;;;;5043346;28;20914;-83
2023/10/18 05:44:20;;;;;;;0.30;0.20;;;6.20;99.90;;;;;;5047666;28;20310;-77
2023/10/18 05:46:46;;;;;;;0.30;0.20;;;6.30;99.90;;;;;;5039365;28;20235;-78
2023/10/18 05:49:15;;;;;;;0.30;0.20;;;6.30;99.90;;;;;;5045833;28;20189;-84
2023/10/18 05:51:51;;;;;;;0.30;0.22;;;6.40;99.90;;;;;;5045163;28;20699;-78
2023/10/18 05:54:24;;;;;;;0.30;0.20;;;6.40;99.90;;;;;;5070262;28;20423;-79
2023/10/18 05:56:51;;;;;;;0.30;0.20;;;6.40;99.90;;;;;;5036967;28;20186;-81
2023/10/18 06:01:58;;;;;;;0.30;0.20;;;6.50;99.90;;;;;;5035872;28;20280;-84
2023/10/18 06:04:29;;;;;;;0.30;0.20;;;6.50;99.90;;;;;;5033604;28;20198;-84
2023/10/18 06:07:04;;;;;;;0.30;0.20;;;6.60;99.90;;;;;;5052934;28;20731;-78
2023/10/18 06:09:33;;;;;;;0.30;0.20;;;6.60;99.90;;;;;;5040315;28;20209;-79
2023/10/18 06:12:03;;;;;;;0.30;0.20;;;6.60;99.90;;;;;;5045833;28;20224;-83
2023/10/18 06:14:40;;;;;;;0.30;0.20;;;6.70;99.90;;;;;;5047913;28;20820;-83
2023/10/18 06:17:12;;;;;;;0.30;0.20;;;6.70;99.90;;;;;;5043439;28;20185;-78
2023/10/18 06:19:39;;;;;;;0.30;0.20;;;6.80;99.90;;;;;;5046100;28;20260;-83
2023/10/18 06:22:15;;;;;;;0.30;0.20;;;6.80;99.90;;;;;;5069449;28;20615;-77
2023/10/18 06:24:43;;;;;;;0.30;0.20;;;7.30;99.90;;;;;;5037514;28;20197;-77
2023/10/18 06:27:15;;;;;;;0.30;0.20;;;7.40;99.90;;;;;;5040247;28;20177;-87
2023/10/18 06:29:42;;;;;;;0.30;0.20;;;7.40;99.90;;;;;;5041675;28;20213;-85
2023/10/18 06:32:13;;;;;;;0.30;0.20;;;7.40;99.90;;;;;;5054475;28;20184;-85
2023/10/18 06:34:43;;;;;;;0.30;0.20;;;7.50;99.90;;;;;;5063760;28;20685;-76
2023/10/18 06:37:40;;;;;;;0.30;0.30;;;7.60;99.90;;;;;;5046043;28;20599;-87
2023/10/18 06:40:20;;;;;;;0.30;0.20;;;7.70;99.90;;;;;;5038956;28;20255;-90
2023/10/18 06:42:46;;;;;;;0.30;0.20;;;7.80;99.90;;;;;;5043630;28;20797;-88
2023/10/18 06:45:15;;;;;;;0.30;0.20;;;7.90;99.90;;;;;;5048252;28;20308;-76
2023/10/18 06:47:44;;;;;;;0.30;0.20;;;8.00;99.90;;;;;;5041198;28;20490;-86
2023/10/18 06:50:11;;;;;;;0.30;0.20;;;8.10;99.90;;;;;;5039481;28;20194;-75
2023/10/18 06:52:52;;;;;;;0.30;0.20;;;8.20;99.90;;;;;;5040712;28;20171;-82
2023/10/18 06:55:35;;;;;;;0.30;0.20;;;8.30;99.90;;;;;;5031604;28;20779;-75
2023/10/18 06:58:11;;;;;;;0.30;0.20;;;8.50;99.90;;;;;;5035548;28;20278;-82
2023/10/18 07:00:43;;;;;;;0.30;0.20;;;8.60;99.90;;;;;;5030272;28;20213;-76
2023/10/18 07:03:16;;;;;;;0.30;0.20;;;8.70;99.90;;;;;;5018851;28;20190;-81
2023/10/18 07:05:49;;;;;;;0.30;0.20;;;8.80;99.90;;;;;;5022117;28;20218;-81
2023/10/18 07:08:49;;;;;;;0.30;0.20;;;8.90;99.90;;;;;;5028587;28;20186;-76
2023/10/18 07:11:16;;;;;;;0.30;0.20;;;9.10;99.90;;;;;;5042398;28;20241;-80
2023/10/18 07:13:46;;;;;;;0.30;0.20;;;9.20;99.90;;;;;;5053424;28;20177;-77
2023/10/18 07:16:15;;;;;;;0.30;0.20;;;9.40;99.90;;;;;;5045109;28;20205;-81
2023/10/18 07:18:44;;;;;;;0.30;0.20;;;9.50;99.90;;;;;;5037389;28;20451;-76
2023/10/18 07:21:11;;;;;;;0.30;0.30;;;9.70;99.90;;;;;;5042716;28;20229;-76
2023/10/18 07:23:37;;;;;;;0.30;0.20;;;9.80;99.90;;;;;;5035931;28;20263;-77
2023/10/18 07:26:07;;;;;;;0.30;0.20;;;10.00;99.90;;;;;;5034724;28;20217;-75
2023/10/18 07:28:36;;;;;;;0.30;0.20;;;10.20;99.90;;;;;;5035253;28;20980;-76
2023/10/18 07:31:10;;;;;;;0.30;0.30;;;10.40;99.90;;;;;;5029936;28;20602;-75
2023/10/18 07:33:42;;;;;;;0.32;0.20;;;10.60;99.90;;;;;;5035570;28;20181;-76
2023/10/18 07:36:11;;;;;;;0.30;0.20;;;11.00;99.90;;;;;;5032006;28;20505;-78
2023/10/18 07:38:38;;;;;;;5.15;4.95;;;11.30;99.90;;;;;;5035136;28;20205;-76
2023/10/18 07:41:07;;;;;;;0.60;0.60;;;11.80;99.90;;;;;;5038491;28;20236;-83
2023/10/18 07:43:34;;;;;;;1.98;1.88;;;12.30;99.90;;;;;;5034923;28;20239;-81
2023/10/18 07:46:05;;;;;;;1.73;1.63;;;12.90;99.90;;;;;;5031850;28;20268;-81
2023/10/18 07:48:31;;;;;;;5.63;5.43;;;13.50;99.90;;;;;;5036085;28;20539;-78
2023/10/18 07:50:58;;;;;;;1.20;1.20;;;14.30;99.90;;;;;;5035757;28;20873;-78
2023/10/18 07:53:24;;;;;;;0.40;0.40;;;15.10;99.90;;;;;;5036982;28;20438;-79
2023/10/18 07:55:57;;;;;;;1.17;1.07;;;16.00;99.90;;;;;;5029439;28;20463;-79
2023/10/18 07:58:25;;;;;;;1.67;1.57;;;16.80;99.90;;;;;;5039348;28;20485;-79
2023/10/18 08:01:12;;;;;;;0.40;0.30;;;17.80;99.90;;;;;;5036146;28;20827;-81
2023/10/18 08:03:38;;;;;;;0.40;0.30;;;18.60;99.00;;;;;;5039411;28;20468;-80
2023/10/18 08:06:15;;;;;;;0.40;0.30;;;19.10;98.50;;;;;;5041184;28;20861;-77
2023/10/18 08:08:42;;;;;;;0.60;0.60;;;19.70;97.70;;;;;;5033299;28;20230;-83
2023/10/18 08:11:12;;;;;;;0.37;0.20;;;20.40;96.80;;;;;;5059281;28;20472;-78
2023/10/18 08:13:47;;;;;;;0.30;0.20;;;21.30;95.00;;;;;;5044681;28;20465;-78
2023/10/18 08:16:19;;;;;;;0.40;0.20;;;22.20;93.00;;;;;;5029742;28;20454;-80
2023/10/18 08:18:57;;;;;;;1.17;1.17;;;22.80;92.50;;;;;;5036875;28;20469;-77
2023/10/18 08:21:26;;;;;;;0.43;0.37;;;23.50;91.10;;;;;;5041664;28;20461;-82
2023/10/18 08:23:55;;;;;;;2.10;2.00;;;24.10;89.80;;;;;;5037615;28;20449;-79
2023/10/18 08:26:23;;;;;;;0.40;0.40;;;24.70;87.20;;;;;;5057184;28;20446;-80
2023/10/18 08:28:48;;;;;;;0.63;0.63;;;25.00;86.00;;;;;;5037056;28;20456;-80
2023/10/18 08:31:34;;;;;;;0.40;0.30;;;25.40;83.80;;;;;;5039764;28;20980;-78
2023/10/18 08:34:06;;;;;;;1.03;0.97;;;25.70;82.80;;;;;;5037742;28;20507;-79
2023/10/18 08:36:32;;;;;;;0.37;0.23;;;25.90;83.30;;;;;;5035980;28;20432;-82
2023/10/18 08:39:01;;;;;;;1.30;1.30;;;26.30;81.00;;;;;;5031358;28;20473;-79
2023/10/18 08:41:34;;;;;;;0.40;0.30;;;26.50;79.20;;;;;;5032933;28;20950;-78
2023/10/18 08:44:10;;;;;;;0.30;0.20;;;26.20;78.60;;;;;;5037257;28;20430;-77
2023/10/18 08:46:52;;;;;;;0.30;0.20;;;25.50;79.30;;;;;;5056780;28;20436;-80
2023/10/18 08:49:22;;;;;;;0.40;0.30;;;24.90;79.60;;;;;;5026264;28;20946;-77
2023/10/18 08:51:56;;;;;;;0.37;0.20;;;24.20;80.90;;;;;;5028771;28;20438;-78
2023/10/18 08:54:22;;;;;;;2.73;2.53;;;23.50;81.00;;;;;;5049675;28;20446;-82
2023/10/18 08:56:48;;;;;;;0.67;0.63;;;23.10;81.40;;;;;;5038344;28;20444;-80
2023/10/18 08:59:18;;;;;;;1.37;1.37;;;22.60;81.90;;;;;;5034763;28;21060;-78
2023/10/18 09:02:09;;;;;;;0.40;0.20;;;22.10;82.80;;;;;;5032989;28;20714;-80
2023/10/18 09:04:31;;;;;;;1.03;1.03;;;21.60;83.70;;;;;;5041139;28;22376;-79
2023/10/18 09:07:00;;;;;;;2.30;2.20;;;21.10;84.50;;;;;;5027750;28;20451;-79
2023/10/18 09:09:35;;;;;;;9.00;5.90;;;20.60;85.30;;;;;;5034107;28;20363;-80
2023/10/18 09:12:14;;;;;;;1.70;1.33;;;20.10;85.80;;;;;;5036785;28;20465;-81
2023/10/18 09:14:50;;;;;;;0.37;0.30;;;19.70;87.00;;;;;;5037947;28;20584;-81
2023/10/18 09:17:21;;;;;;;0.40;0.20;;;19.50;87.90;;;;;;5030885;28;20425;-78
2023/10/18 09:19:51;;;;;;;0.30;0.20;;;19.20;88.30;;;;;;5052340;28;20440;-78
2023/10/18 09:22:17;;;;;;;0.30;0.20;;;19.00;88.40;;;;;;5041968;28;20421;-79
2023/10/18 09:24:43;;;;;;;0.40;0.20;;;18.80;88.60;;;;;;5039237;28;20456;-80
2023/10/18 09:27:09;;;;;;;0.40;0.20;;;18.70;89.70;;;;;;5036102;28;20282;-78
2023/10/18 09:29:36;;;;;;;0.30;0.20;;;18.50;89.80;;;;;;5038542;28;20464;-80
2023/10/18 09:32:04;;;;;;;0.40;0.20;;;18.40;90.10;;;;;;5038314;28;20737;-79
2023/10/18 09:34:38;;;;;;;0.40;0.30;;;18.20;90.30;;;;;;5044689;28;20479;-79
2023/10/18 09:37:04;;;;;;;0.30;0.20;;;18.20;90.30;;;;;;5043836;28;20432;-79
2023/10/18 09:39:37;;;;;;;0.30;0.20;;;18.10;90.20;;;;;;5041874;28;21163;-81
2023/10/18 09:42:12;;;;;;;0.40;0.20;;;18.00;90.80;;;;;;5044251;28;20491;-81
2023/10/18 09:44:41;;;;;;;0.30;0.20;;;17.90;90.80;;;;;;5040317;28;20542;-80
2023/10/18 09:47:07;;;;;;;0.50;0.50;;;17.90;90.90;;;;;;5044904;28;20429;-80
2023/10/18 09:49:34;;;;;;;0.30;0.20;;;17.80;90.90;;;;;;5038837;28;21121;-79
2023/10/18 09:52:03;;;;;;;0.30;0.30;;;17.80;91.00;;;;;;5026878;28;20411;-81
2023/10/18 09:54:36;;;;;;;0.30;0.20;;;17.80;91.30;;;;;;5041801;28;20454;-81
2023/10/18 09:57:02;;;;;;;0.30;0.20;;;17.70;91.40;;;;;;5044639;28;20601;-80
2023/10/18 09:59:31;;;;;;;0.30;0.30;;;17.70;91.30;;;;;;5032468;28;20555;-82
2023/10/18 10:02:00;;;;;;;0.30;0.20;;;17.70;91.10;;;;;;5035006;28;20450;-82
2023/10/18 10:04:32;;;;;;;0.77;0.60;;;17.60;91.00;;;;;;5033330;28;20500;-80
2023/10/18 10:09:48;;;;;;;0.40;0.40;;;17.40;91.10;;;;;;5046975;28;21244;-80
2023/10/18 10:12:18;;;;;;;0.40;0.40;;;17.30;90.70;;;;;;5034036;28;20565;-80
2023/10/18 10:14:45;;;;;;;0.30;0.20;;;17.30;90.80;;;;;;5034966;28;20444;-81
2023/10/18 10:17:15;;;;;;;0.30;0.20;;;17.30;90.50;;;;;;5042289;28;21175;-79
2023/10/18 10:19:50;;;;;;;1.20;1.10;;;17.30;90.50;;;;;;5043690;28;20950;-78
2023/10/18 10:22:23;;;;;;;0.30;0.20;;;17.30;90.60;;;;;;5052426;28;20463;-82
2023/10/18 10:24:59;;;;;;;0.30;0.20;;;17.20;91.00;;;;;;5039368;28;20439;-80
2023/10/18 10:27:28;;;;;;;0.30;0.30;;;17.30;90.70;;;;;;5063818;28;20442;-82
2023/10/18 10:29:58;;;;;;;0.30;0.20;;;17.20;90.50;;;;;;5037162;28;20569;-78
2023/10/18 10:32:24;;;;;;;0.30;0.20;;;17.20;90.40;;;;;;5058321;28;21129;-81
2023/10/18 10:35:15;;;;;;;0.30;0.20;;;17.20;90.60;;;;;;5033806;28;20938;-81
2023/10/18 10:37:51;;;;;;;0.40;0.33;;;17.30;90.70;;;;;;5020033;28;20864;-78
2023/10/18 10:43:03;;;;;;;24.53;6.87;;;17.40;90.30;;;;;;5035670;28;20420;-78
2023/10/18 10:45:38;;;;;;;0.30;0.20;;;17.40;90.50;;;;;;5036467;28;20459;-77
2023/10/18 10:48:36;;;;;;;0.73;0.73;;;17.50;90.40;;;;;;5032315;28;20450;-77
2023/10/18 10:51:12;;;;;;;0.30;0.20;;;17.40;90.10;;;;;;5031264;28;20488;-82
2023/10/18 10:53:48;;;;;;;0.30;0.20;;;17.40;90.20;;;;;;5033698;28;21118;-77
2023/10/18 10:56:19;;;;;;;0.90;0.80;;;17.40;90.20;;;;;;5029643;28;20486;-77
2023/10/18 11:04:25;;;;;;;0.30;0.20;;;17.30;90.50;;;;;;5034503;28;21055;-81
2023/10/18 11:07:13;;;;;;;2.77;2.67;;;17.40;90.70;;;;;;5037545;28;20534;-80
2023/10/18 11:09:42;;;;;;;0.30;0.30;;;17.40;90.60;;;;;;5034981;28;20478;-77
2023/10/18 11:12:11;;;;;;;0.40;0.20;;;17.50;90.50;;;;;;5037994;28;20536;-77
2023/10/18 11:14:37;;;;;;;0.43;0.43;;;17.50;90.50;;;;;;5030709;28;20927;-80
2023/10/18 11:17:17;;;;;;;0.40;0.30;;;17.50;90.30;;;;;;5025981;28;21029;-81
2023/10/18 11:19:59;;;;;;;0.30;0.20;;;17.50;90.30;;;;;;5063197;28;21067;-81
2023/10/18 11:22:29;;;;;;;1.37;1.27;;;17.50;90.40;;;;;;5034387;28;20436;-78
2023/10/18 11:24:56;;;;;;;0.30;0.20;;;17.50;90.40;;;;;;5031642;28;20982;-77
2023/10/18 11:27:26;;;;;;;0.30;0.20;;;17.50;90.50;;;;;;5038767;28;20465;-80
2023/10/18 11:30:04;;;;;;;0.30;0.20;;;17.60;90.40;;;;;;5033725;28;20601;-77
2023/10/18 11:32:29;;;;;;;0.30;0.20;;;17.60;90.40;;;;;;5034149;28;20436;-77
2023/10/18 11:35:09;;;;;;;0.30;0.20;;;17.60;90.20;;;;;;5031253;28;20465;-77
2023/10/18 11:37:39;;;;;;;0.67;0.57;;;17.60;90.10;;;;;;5027331;28;20271;-78
2023/10/18 11:40:21;;;;;;;0.30;0.20;;;17.50;90.10;;;;;;5020591;28;20997;-80
2023/10/18 11:42:54;;;;;;;0.30;0.20;;;17.60;90.20;;;;;;5031561;28;20823;-81
2023/10/18 11:45:21;;;;;;;0.30;0.20;;;17.60;89.90;;;;;;5036610;28;20744;-77
2023/10/18 11:47:51;;;;;;;0.30;0.20;;;17.50;90.00;;;;;;5030204;28;21163;-81
2023/10/18 11:50:27;;;;;;;0.30;0.20;;;17.50;89.50;;;;;;5041901;28;20900;-78
2023/10/18 11:52:53;;;;;;;1.23;1.23;;;17.50;89.90;;;;;;5042746;28;20489;-78
2023/10/18 11:55:20;;;;;;;0.30;0.30;;;17.50;89.10;;;;;;5037970;28;20447;-82
2023/10/18 11:57:46;;;;;;;0.30;0.30;;;17.50;88.90;;;;;;5039743;28;20206;-81
2023/10/18 12:02:48;;;;;;;0.30;0.30;;;17.50;89.60;;;;;;5044037;28;20446;-81
2023/10/18 12:05:17;;;;;;;2.00;1.90;;;17.50;89.90;;;;;;5048467;28;20514;-77
2023/10/18 12:07:46;;;;;;;0.30;0.20;;;17.50;89.90;;;;;;5031560;28;20240;-80
2023/10/18 12:10:34;;;;;;;0.30;0.30;;;17.50;89.00;;;;;;5035449;28;20821;-77
2023/10/18 12:13:06;;;;;;;1.30;1.23;;;17.40;88.90;;;;;;5044083;28;20426;-77
2023/10/18 12:15:33;;;;;;;0.30;0.20;;;17.40;88.80;;;;;;5062135;28;20473;-78
2023/10/18 12:18:04;;;;;;;0.30;0.30;;;17.40;89.00;;;;;;5036274;28;20838;-78
2023/10/18 12:20:37;;;;;;;0.30;0.20;;;17.50;88.60;;;;;;5056094;28;20447;-78
2023/10/18 12:23:21;;;;;;;0.30;0.20;;;17.50;88.80;;;;;;5047001;28;20425;-83
2023/10/18 12:25:47;;;;;;;0.40;0.40;;;17.50;88.80;;;;;;5043349;28;20509;-81
2023/10/18 12:28:17;;;;;;;0.30;0.20;;;17.50;88.60;;;;;;5041771;28;20451;-77
2023/10/18 12:30:44;;;;;;;0.30;0.20;;;17.50;88.80;;;;;;5035382;28;20467;-77
2023/10/18 12:33:22;;;;;;;0.30;0.20;;;17.50;88.50;;;;;;5021128;28;20497;-77
2023/10/18 12:35:48;;;;;;;0.30;0.20;;;17.50;88.40;;;;;;5020400;28;20588;-80
2023/10/18 12:38:15;;;;;;;0.30;0.20;;;17.40;88.00;;;;;;5031356;28;20520;-80
2023/10/18 12:40:58;;;;;;;0.30;0.20;;;17.40;88.50;;;;;;5041190;28;20501;-81
2023/10/18 12:43:25;;;;;;;2.30;2.20;;;17.40;88.80;;;;;;5038704;28;20504;-78
2023/10/18 12:45:51;;;;;;;0.30;0.20;;;17.40;87.90;;;;;;5020221;28;20444;-78
2023/10/18 12:48:27;;;;;;;0.30;0.20;;;17.40;87.20;;;;;;5033833;28;20446;-78
2023/10/18 12:50:54;;;;;;;0.30;0.30;;;17.40;87.00;;;;;;5038853;28;20214;-78
2023/10/18 12:55:57;;;;;;;2.50;2.30;;;17.40;87.40;;;;;;5044322;28;20489;-80
2023/10/18 12:58:31;;;;;;;0.40;0.40;;;17.40;87.90;;;;;;5041724;28;20880;-82
2023/10/18 13:01:06;;;;;;;0.30;0.20;;;17.40;87.40;;;;;;5044258;28;20447;-81
2023/10/18 13:03:34;;;;;;;0.30;0.20;;;17.40;87.90;;;;;;5049259;28;20488;-78
2023/10/18 13:06:00;;;;;;;0.40;0.40;;;17.40;87.40;;;;;;5046257;28;20495;-78
2023/10/18 13:08:26;;;;;;;0.30;0.20;;;17.50;87.00;;;;;;5043311;28;20403;-81
2023/10/18 13:13:35;;;;;;;7.87;3.43;;;17.50;88.10;;;;;;5033451;28;20443;-79
2023/10/18 13:16:01;;;;;;;0.30;0.20;;;17.50;86.90;;;;;;5039326;28;20532;-86
2023/10/18 13:18:26;;;;;;;0.30;0.20;;;17.50;86.80;;;;;;5068404;28;20475;-90
2023/10/18 13:20:55;;;;;;;0.30;0.27;;;17.50;86.50;;;;;;5029257;28;20787;-93
2023/10/18 13:23:21;;;;;;;0.30;0.20;;;17.60;87.00;;;;;;5059730;28;20466;-91
2023/10/18 13:25:51;;;;;;;0.50;0.50;;;17.60;86.70;;;;;;5043628;28;20557;-91
2023/10/18 13:28:33;;;;;;;0.40;0.30;;;17.50;86.00;;;;;;5047173;28;20734;-77
2023/10/18 13:31:07;;;;;;;1.53;1.43;;;17.50;86.00;;;;;;5048547;28;20450;-90
2023/10/18 13:33:38;;;;;;;0.50;0.50;;;17.60;86.30;;;;;;5066691;28;20819;-90
2023/10/18 13:36:09;;;;;;;0.30;0.20;;;17.70;86.70;;;;;;5041871;28;20467;-77
2023/10/18 13:38:36;;;;;;;0.53;0.50;;;17.70;86.80;;;;;;5044621;28;20477;-91
2023/10/18 13:41:01;;;;;;;0.30;0.20;;;17.80;86.30;;;;;;5062093;28;20610;-78
2023/10/18 13:43:28;;;;;;;0.30;0.20;;;17.80;86.00;;;;;;5056968;28;20790;-77
2023/10/18 13:45:59;;;;;;;0.30;0.20;;;17.70;86.10;;;;;;5049360;28;20497;-92
2023/10/18 13:48:25;;;;;;;1.23;0.87;;;17.70;86.20;;;;;;5046653;28;20404;-91